createdAt,value
2022-08-29T00:00:24.585Z,14.34
2022-08-29T00:02:25.843Z,14.35
2022-08-29T00:04:27.030Z,14.27
2022-08-29T00:06:28.722Z,14.23
2022-08-29T00:08:29.742Z,14.19
2022-08-29T00:10:30.740Z,14.11
2022-08-29T00:12:32.527Z,14.05
2022-08-29T00:14:34.319Z,14.01
2022-08-29T00:16:36.042Z,14.03
2022-08-29T00:18:37.381Z,14.15
2022-08-29T00:20:38.319Z,14.18
2022-08-29T00:22:39.231Z,14.17
2022-08-29T00:24:40.268Z,14.07
2022-08-29T00:26:41.497Z,14.12
2022-08-29T00:28:43.358Z,14.1
2022-08-29T00:30:44.262Z,13.99
2022-08-29T00:32:45.304Z,13.92
2022-08-29T00:34:46.463Z,13.84
2022-08-29T00:36:48.976Z,13.82
2022-08-29T00:38:49.588Z,13.77
2022-08-29T00:40:52.160Z,13.8
2022-08-29T00:42:52.723Z,13.87
2022-08-29T00:44:54.125Z,13.76
2022-08-29T00:46:55.664Z,13.72
2022-08-29T00:48:57.083Z,13.61
2022-08-29T00:50:58.077Z,13.65
2022-08-29T00:52:59.562Z,13.76
2022-08-29T00:55:01.035Z,13.76
2022-08-29T00:57:02.821Z,13.62
2022-08-29T00:59:04.303Z,13.61
2022-08-29T01:01:05.494Z,13.6
2022-08-29T01:03:07.277Z,13.58
2022-08-29T01:05:08.418Z,13.53
2022-08-29T01:07:10.392Z,13.44
2022-08-29T01:09:11.343Z,13.45
2022-08-29T01:11:12.417Z,13.48
2022-08-29T01:13:13.716Z,13.37
2022-08-29T01:15:15.415Z,13.44
2022-08-29T01:17:17.029Z,13.37
2022-08-29T01:19:18.314Z,13.33
2022-08-29T01:21:19.881Z,13.22
2022-08-29T01:23:21.425Z,13.11
2022-08-29T01:25:22.612Z,12.95
2022-08-29T01:27:24.439Z,12.91
2022-08-29T01:29:25.814Z,12.82
2022-08-29T01:31:37.926Z,12.76
2022-08-29T01:33:28.889Z,12.72
2022-08-29T01:35:30.347Z,12.53
2022-08-29T01:37:31.769Z,12.53
2022-08-29T01:39:33.456Z,12.65
2022-08-29T01:41:34.832Z,12.71
2022-08-29T01:43:36.006Z,12.71
2022-08-29T01:45:37.905Z,12.75
2022-08-29T01:47:39.683Z,12.75
2022-08-29T01:49:41.131Z,12.71
2022-08-29T01:51:42.776Z,12.62
2022-08-29T01:53:44.057Z,12.53
2022-08-29T01:55:45.424Z,12.4
2022-08-29T01:57:46.713Z,12.32
2022-08-29T01:59:48.516Z,12.27
2022-08-29T02:01:50.145Z,12.31
2022-08-29T02:03:51.240Z,12.51
2022-08-29T02:05:52.348Z,12.66
2022-08-29T02:07:53.844Z,12.54
2022-08-29T02:09:55.470Z,12.43
2022-08-29T02:11:57.029Z,12.36
2022-08-29T02:13:58.006Z,12.29
2022-08-29T02:15:59.200Z,12.22
2022-08-29T02:18:00.393Z,12.21
2022-08-29T02:20:01.881Z,12.27
2022-08-29T02:22:03.658Z,12.22
2022-08-29T02:24:21.604Z,12.24
2022-08-29T02:26:06.990Z,12.29
2022-08-29T02:28:08.498Z,12.27
2022-08-29T02:30:09.833Z,12.33
2022-08-29T02:32:11.463Z,12.38
2022-08-29T02:34:12.454Z,12.29
2022-08-29T02:36:14.070Z,12.33
2022-08-29T02:38:16.129Z,12.36
2022-08-29T02:40:17.202Z,12.3
2022-08-29T02:42:18.833Z,12.16
2022-08-29T02:44:20.552Z,12.09
2022-08-29T02:46:21.735Z,12.28
2022-08-29T02:48:23.303Z,12.23
2022-08-29T02:50:24.377Z,12.13
2022-08-29T02:52:26.101Z,11.95
2022-08-29T02:54:27.205Z,11.87
2022-08-29T02:56:28.681Z,11.89
2022-08-29T02:58:30.438Z,11.89
2022-08-29T03:00:31.695Z,11.82
2022-08-29T03:02:33.352Z,11.73
2022-08-29T03:04:34.846Z,11.63
2022-08-29T03:08:36.962Z,11.76
2022-08-29T03:10:38.775Z,11.78
2022-08-29T03:12:40.064Z,11.77
2022-08-29T03:14:41.410Z,11.76
2022-08-29T03:16:42.886Z,11.78
2022-08-29T03:18:44.426Z,11.79
2022-08-29T03:20:46.284Z,11.82
2022-08-29T03:22:47.966Z,11.82
2022-08-29T03:24:49.650Z,11.78
2022-08-29T03:26:52.538Z,11.75
2022-08-29T03:28:52.497Z,11.69
2022-08-29T03:30:53.841Z,11.7
2022-08-29T03:32:55.339Z,11.76
2022-08-29T03:34:57.186Z,11.74
2022-08-29T03:36:58.797Z,11.71
2022-08-29T03:39:00.264Z,11.64
2022-08-29T03:41:01.758Z,11.64
2022-08-29T03:43:03.105Z,11.62
2022-08-29T03:45:04.942Z,11.54
2022-08-29T03:47:05.866Z,11.52
2022-08-29T03:51:08.554Z,11.46
2022-08-29T03:53:09.756Z,11.45
2022-08-29T03:55:11.069Z,11.46
2022-08-29T03:57:12.005Z,11.45
2022-08-29T03:59:13.524Z,11.39
2022-08-29T04:01:14.644Z,11.31
2022-08-29T04:03:16.495Z,11.34
2022-08-29T04:05:17.525Z,11.46
2022-08-29T04:07:19.061Z,11.45
2022-08-29T04:09:20.943Z,11.53
2022-08-29T04:11:22.363Z,11.48
2022-08-29T04:13:23.444Z,11.39
2022-08-29T04:15:24.885Z,11.37
2022-08-29T04:17:26.727Z,11.43
2022-08-29T04:19:28.391Z,11.48
2022-08-29T04:21:29.930Z,11.43
2022-08-29T04:23:31.515Z,11.4
2022-08-29T04:25:36.413Z,11.3
2022-08-29T04:27:34.401Z,11.16
2022-08-29T04:29:36.355Z,11.12
2022-08-29T04:31:38.142Z,11.05
2022-08-29T04:33:39.230Z,10.97
2022-08-29T04:35:40.989Z,11.01
2022-08-29T04:37:42.317Z,11.01
2022-08-29T04:39:43.903Z,11.1
2022-08-29T04:42:55.687Z,11.09
2022-08-29T04:44:56.778Z,11.08
2022-08-29T04:46:58.281Z,11.07
2022-08-29T04:49:01.891Z,11.09
2022-08-29T04:51:00.555Z,11.06
2022-08-29T04:53:02.320Z,11.03
2022-08-29T04:55:03.483Z,11.01
2022-08-29T04:57:05.063Z,11.05
2022-08-29T04:59:06.692Z,11.03
2022-08-29T05:01:08.546Z,11.03
2022-08-29T05:03:10.387Z,11.23
2022-08-29T05:05:11.834Z,11.46
2022-08-29T05:07:13.267Z,11.63
2022-08-29T05:09:14.804Z,11.73
2022-08-29T05:11:22.126Z,11.82
2022-08-29T05:13:17.537Z,12.09
2022-08-29T05:15:19.024Z,12.41
2022-08-29T05:17:20.953Z,12.75
2022-08-29T05:19:22.231Z,12.94
2022-08-29T05:21:25.762Z,13.14
2022-08-29T05:23:25.463Z,13.34
2022-08-29T05:25:35.219Z,13.6
2022-08-29T05:27:28.708Z,13.52
2022-08-29T05:29:29.857Z,13.35
2022-08-29T05:31:33.141Z,13.34
2022-08-29T05:33:33.714Z,13.3
2022-08-29T05:35:34.137Z,13.44
2022-08-29T05:37:44.854Z,13.76
2022-08-29T05:39:37.194Z,14.03
2022-08-29T05:41:38.793Z,13.83
2022-08-29T05:43:40.382Z,14.04
2022-08-29T05:45:42.236Z,13.99
2022-08-29T05:47:43.307Z,13.91
2022-08-29T05:49:44.597Z,13.91
2022-08-29T05:51:45.676Z,14.21
2022-08-29T05:53:47.503Z,14.5
2022-08-29T05:55:49.313Z,14.56
2022-08-29T05:57:50.765Z,14.27
2022-08-29T05:59:51.768Z,13.96
2022-08-29T06:01:53.653Z,14.18
2022-08-29T06:03:55.454Z,14.13
2022-08-29T06:05:56.985Z,14.05
2022-08-29T06:07:59.430Z,14.33
2022-08-29T06:10:03.747Z,14.56
2022-08-29T06:12:01.743Z,15.22
2022-08-29T06:14:03.182Z,16.04
2022-08-29T06:16:04.555Z,15.87
2022-08-29T06:18:05.525Z,16.22
2022-08-29T06:20:07.262Z,15.65
2022-08-29T06:22:09.847Z,16
2022-08-29T06:24:10.769Z,15.81
2022-08-29T06:26:11.776Z,16.07
2022-08-29T06:28:14.290Z,16.19
2022-08-29T06:30:13.718Z,16.32
2022-08-29T06:32:14.742Z,15.69
2022-08-29T06:34:16.840Z,16.03
2022-08-29T06:36:17.995Z,16.71
2022-08-29T06:38:28.596Z,17.33
2022-08-29T06:40:22.247Z,16.99
2022-08-29T06:42:23.089Z,17.1
2022-08-29T06:44:24.280Z,16.75
2022-08-29T06:46:25.701Z,16.57
2022-08-29T06:48:29.362Z,16.95
2022-08-29T06:50:27.460Z,17.03
2022-08-29T06:52:28.884Z,17.38
2022-08-29T06:54:29.929Z,17.74
2022-08-29T06:56:31.687Z,17.32
2022-08-29T06:58:33.332Z,17.62
2022-08-29T07:00:34.433Z,17.25
2022-08-29T07:02:35.395Z,17.09
2022-08-29T07:04:36.966Z,17.09
2022-08-29T07:06:37.762Z,17.34
2022-08-29T07:08:42.313Z,16.77
2022-08-29T07:10:40.409Z,16.33
2022-08-29T07:16:44.126Z,17.11
2022-08-29T07:18:45.804Z,17.66
2022-08-29T07:20:47.134Z,18.33
2022-08-29T07:22:48.104Z,18.72
2022-08-29T07:24:49.611Z,19.18
2022-08-29T07:26:50.698Z,19.29
2022-08-29T07:28:51.358Z,19.1
2022-08-29T07:30:53.148Z,19.7
2022-08-29T07:32:54.691Z,19.39
2022-08-29T07:34:56.443Z,19.29
2022-08-29T07:36:57.700Z,19.48
2022-08-29T07:41:00.197Z,19.93
2022-08-29T07:43:01.638Z,19.97
2022-08-29T07:45:03.312Z,19.82
2022-08-29T07:47:05.128Z,19.92
2022-08-29T07:49:05.910Z,20.4
2022-08-29T07:51:10.436Z,20.31
2022-08-29T07:53:09.000Z,20.36
2022-08-29T07:55:09.864Z,20.55
2022-08-29T07:57:11.228Z,20.46
2022-08-29T07:59:12.596Z,20.83
2022-08-29T08:03:15.684Z,20.69
2022-08-29T08:05:16.362Z,20.39
2022-08-29T08:07:17.454Z,20.91
2022-08-29T08:09:18.886Z,20.79
2022-08-29T08:11:19.963Z,20.89
2022-08-29T08:13:21.083Z,20.5
2022-08-29T08:15:22.060Z,20.6
2022-08-29T08:17:23.231Z,20.83
2022-08-29T08:19:24.513Z,21.03
2022-08-29T08:21:26.195Z,21.43
2022-08-29T08:23:27.514Z,21.2
2022-08-29T08:25:28.500Z,21.81
2022-08-29T08:27:29.965Z,20.77
2022-08-29T08:29:31.433Z,21.21
2022-08-29T08:31:33.273Z,21.72
2022-08-29T08:33:35.065Z,21.82
2022-08-29T08:35:35.505Z,21.59
2022-08-29T08:37:37.141Z,21.82
2022-08-29T08:39:38.353Z,21.32
2022-08-29T08:41:39.421Z,21.9
2022-08-29T08:43:40.622Z,22.03
2022-08-29T08:45:41.950Z,22.56
2022-08-29T08:47:43.417Z,22.26
2022-08-29T08:49:44.677Z,22.52
2022-08-29T08:51:45.998Z,21.86
2022-08-29T08:53:47.177Z,21.76
2022-08-29T08:55:48.699Z,21.82
2022-08-29T08:57:49.915Z,22.38
2022-08-29T08:59:50.778Z,22.06
2022-08-29T09:03:52.868Z,21.47
2022-08-29T09:05:54.437Z,21.91
2022-08-29T09:07:55.244Z,22.3
2022-08-29T09:09:56.725Z,22.34
2022-08-29T09:11:58.490Z,22.3
2022-08-29T09:13:59.499Z,22.27
2022-08-29T09:16:00.946Z,22.31
2022-08-29T09:18:02.129Z,22.6
2022-08-29T09:20:03.887Z,22.81
2022-08-29T09:22:05.375Z,22.12
2022-08-29T09:24:06.925Z,22.24
2022-08-29T09:26:08.589Z,22.87
2022-08-29T09:28:09.868Z,23.31
2022-08-29T09:30:11.167Z,23.08
2022-08-29T09:32:12.228Z,23.17
2022-08-29T09:34:13.178Z,23.13
2022-08-29T09:36:14.680Z,23.06
2022-08-29T09:38:15.450Z,23.01
2022-08-29T09:40:24.386Z,23.38
2022-08-29T09:44:19.400Z,23.54
2022-08-29T09:46:20.569Z,23.69
2022-08-29T09:48:22.024Z,23.74
2022-08-29T09:50:22.880Z,24.31
2022-08-29T09:52:24.315Z,24.31
2022-08-29T09:54:25.966Z,23.51
2022-08-29T09:56:26.739Z,23.65
2022-08-29T09:58:27.594Z,23.69
2022-08-29T10:00:29.332Z,24.08
2022-08-29T10:02:30.182Z,23.18
2022-08-29T10:04:31.134Z,23.3
2022-08-29T10:06:32.363Z,23.93
2022-08-29T10:08:33.249Z,23.82
2022-08-29T10:10:34.829Z,23.65
2022-08-29T10:12:36.214Z,24.06
2022-08-29T10:14:37.745Z,24.02
2022-08-29T10:16:39.292Z,24.34
2022-08-29T10:18:40.523Z,24.43
2022-08-29T10:20:41.875Z,24.2
2022-08-29T10:22:43.343Z,24.38
2022-08-29T10:24:44.686Z,23.81
2022-08-29T10:26:45.449Z,24.42
2022-08-29T10:28:46.417Z,23.94
2022-08-29T10:30:47.412Z,24.47
2022-08-29T10:32:48.992Z,24.39
2022-08-29T10:34:50.382Z,24.18
2022-08-29T10:36:51.307Z,24.52
2022-08-29T10:38:52.741Z,24.45
2022-08-29T10:40:53.875Z,24.43
2022-08-29T10:44:56.191Z,24.9
2022-08-29T10:46:57.032Z,25.51
2022-08-29T10:48:58.164Z,25.56
2022-08-29T10:50:58.978Z,25.12
2022-08-29T10:53:00.628Z,25.42
2022-08-29T10:55:01.777Z,24.55
2022-08-29T10:57:02.880Z,25.54
2022-08-29T10:59:03.652Z,24.74
2022-08-29T11:01:08.978Z,24.91
2022-08-29T11:03:05.756Z,24.78
2022-08-29T11:05:06.749Z,24.88
2022-08-29T11:07:08.061Z,25.33
2022-08-29T11:09:09.371Z,24.9
2022-08-29T11:11:10.579Z,25.2
2022-08-29T11:13:12.022Z,24.83
2022-08-29T11:15:12.952Z,25.26
2022-08-29T11:17:14.330Z,24.81
2022-08-29T11:19:18.988Z,25.24
2022-08-29T11:21:17.087Z,25.23
2022-08-29T11:23:18.660Z,24.83
2022-08-29T11:25:19.595Z,25.32
2022-08-29T11:28:04.780Z,25.31
2022-08-29T11:30:06.510Z,25.81
2022-08-29T11:32:07.377Z,25.4
2022-08-29T11:34:08.313Z,25.29
2022-08-29T11:38:10.620Z,25.4
2022-08-29T11:40:12.095Z,25.62
2022-08-29T11:42:13.306Z,26.39
2022-08-29T11:44:14.256Z,25.98
2022-08-29T11:46:15.192Z,25.9
2022-08-29T11:48:16.515Z,26.34
2022-08-29T11:50:17.342Z,25.93
2022-08-29T11:52:19.004Z,26.29
2022-08-29T11:54:19.474Z,26.87
2022-08-29T11:56:20.929Z,26.93
2022-08-29T11:58:22.592Z,25.53
2022-08-29T12:00:23.460Z,25.56
2022-08-29T12:02:24.827Z,26.33
2022-08-29T12:04:25.799Z,26.75
2022-08-29T12:06:26.549Z,27.02
2022-08-29T12:08:36.754Z,25.32
2022-08-29T12:10:28.697Z,25.99
2022-08-29T12:12:29.699Z,26.74
2022-08-29T12:14:33.224Z,26.81
2022-08-29T12:16:31.640Z,26.36
2022-08-29T12:18:36.267Z,26.46
2022-08-29T12:20:34.302Z,26.97
2022-08-29T12:22:35.858Z,26.14
2022-08-29T12:24:37.222Z,26.05
2022-08-29T12:26:38.122Z,25.54
2022-08-29T12:28:39.517Z,25.98
2022-08-29T12:30:40.997Z,26.28
2022-08-29T12:32:42.420Z,25.72
2022-08-29T12:34:43.336Z,25.91
2022-08-29T12:36:48.940Z,25.78
2022-08-29T12:38:46.157Z,25.87
2022-08-29T12:40:47.077Z,25.92
2022-08-29T12:42:48.530Z,25.83
2022-08-29T12:44:49.477Z,26.21
2022-08-29T12:46:51.130Z,26.86
2022-08-29T12:48:53.444Z,26.93
2022-08-29T12:50:53.514Z,27.34
2022-08-29T12:52:55.043Z,27.89
2022-08-29T12:54:56.650Z,28.16
2022-08-29T12:56:57.108Z,27.48
2022-08-29T12:58:58.462Z,27.6
2022-08-29T13:00:59.514Z,28.28
2022-08-29T13:03:00.641Z,27.67
2022-08-29T13:05:01.908Z,27.61
2022-08-29T13:07:03.450Z,28.11
2022-08-29T13:09:04.521Z,28.09
2022-08-29T13:11:05.539Z,27.54
2022-08-29T13:13:07.137Z,27.45
2022-08-29T13:15:07.893Z,27.83
2022-08-29T13:19:11.535Z,27.64
2022-08-29T13:21:11.559Z,27.82
2022-08-29T13:23:12.973Z,27.78
2022-08-29T13:25:14.614Z,28.46
2022-08-29T13:27:15.555Z,27.67
2022-08-29T13:29:17.242Z,28.4
2022-08-29T13:31:18.106Z,28.84
2022-08-29T13:33:18.926Z,29.33
2022-08-29T13:35:19.782Z,28.77
2022-08-29T13:37:20.841Z,29.12
2022-08-29T13:39:22.385Z,28.41
2022-08-29T13:41:23.168Z,27.93
2022-08-29T13:43:24.775Z,28.24
2022-08-29T13:45:26.457Z,29.14
2022-08-29T13:47:28.161Z,28.15
2022-08-29T13:49:29.637Z,27.36
2022-08-29T13:51:30.717Z,27.23
2022-08-29T13:53:31.818Z,27.25
2022-08-29T13:55:32.828Z,28.03
2022-08-29T13:57:34.307Z,28.77
2022-08-29T13:59:36.112Z,29.02
2022-08-29T14:03:38.263Z,28.63
2022-08-29T14:05:39.470Z,28.77
2022-08-29T14:07:40.358Z,28.16
2022-08-29T14:09:41.282Z,27.58
2022-08-29T14:11:42.246Z,28.62
2022-08-29T14:13:43.399Z,29.34
2022-08-29T14:15:44.775Z,29.21
2022-08-29T14:17:45.725Z,29.12
2022-08-29T14:19:46.707Z,29.08
2022-08-29T14:21:47.836Z,28.02
2022-08-29T14:23:49.359Z,28.55
2022-08-29T14:25:50.464Z,28.79
2022-08-29T14:27:51.910Z,28.89
2022-08-29T14:29:52.951Z,29.28
2022-08-29T14:31:53.839Z,28.99
2022-08-29T14:33:55.195Z,29.47
2022-08-29T14:35:56.713Z,29.39
2022-08-29T14:37:57.705Z,28.92
2022-08-29T14:39:59.253Z,28.72
2022-08-29T14:42:00.621Z,28.83
2022-08-29T14:44:02.022Z,28.64
2022-08-29T14:46:02.809Z,27.83
2022-08-29T14:48:04.210Z,27.86
2022-08-29T14:50:05.175Z,28.19
2022-08-29T14:52:06.543Z,27.8
2022-08-29T14:54:07.289Z,28.74
2022-08-29T14:56:08.515Z,29.34
2022-08-29T14:58:09.966Z,29.2
2022-08-29T15:00:11.457Z,29.08
2022-08-29T15:02:12.775Z,27.47
2022-08-29T15:04:13.957Z,27.39
2022-08-29T15:06:14.846Z,28.12
2022-08-29T15:08:16.413Z,28.35
2022-08-29T15:10:17.189Z,27.52
2022-08-29T15:12:17.968Z,27.12
2022-08-29T15:14:19.671Z,27.13
2022-08-29T15:16:20.909Z,26.65
2022-08-29T15:18:48.337Z,27.13
2022-08-29T15:20:38.639Z,27.29
2022-08-29T15:22:24.225Z,27.21
2022-08-29T15:24:25.560Z,27.42
2022-08-29T15:26:26.793Z,27.14
2022-08-29T15:28:27.839Z,27.59
2022-08-29T15:30:29.582Z,27.3
2022-08-29T15:32:30.560Z,27.37
2022-08-29T15:34:31.377Z,27.83
2022-08-29T15:36:32.223Z,27.44
2022-08-29T15:38:33.906Z,26.71
2022-08-29T15:40:35.021Z,27.01
2022-08-29T15:42:36.326Z,27.21
2022-08-29T15:44:37.042Z,26.9
2022-08-29T15:46:38.198Z,26.69
2022-08-29T15:48:38.846Z,27.05
2022-08-29T15:50:39.585Z,26.86
2022-08-29T15:52:40.941Z,27.55
2022-08-29T15:54:42.157Z,26.88
2022-08-29T15:56:43.190Z,26.95
2022-08-29T15:58:44.927Z,26.82
2022-08-29T16:00:45.995Z,26.61
2022-08-29T16:02:47.744Z,26.87
2022-08-29T16:04:49.769Z,27.23
2022-08-29T16:06:50.791Z,27.31
2022-08-29T16:08:52.689Z,26.82
2022-08-29T16:10:52.765Z,26.78
2022-08-29T16:12:54.008Z,26.4
2022-08-29T16:15:00.298Z,26.85
2022-08-29T16:16:56.351Z,26.89
2022-08-29T16:18:57.169Z,26.77
2022-08-29T16:20:58.821Z,27.09
2022-08-29T16:23:00.067Z,27.34
2022-08-29T16:25:01.562Z,27.6
2022-08-29T16:27:02.537Z,27.47
2022-08-29T16:29:03.987Z,26.89
2022-08-29T16:31:04.927Z,27.37
2022-08-29T16:35:08.357Z,26.53
2022-08-29T16:37:09.469Z,26.3
2022-08-29T16:39:10.767Z,26.4
2022-08-29T16:41:12.184Z,26.25
2022-08-29T16:43:12.961Z,26.4
2022-08-29T16:45:14.491Z,26.53
2022-08-29T16:47:15.647Z,26.25
2022-08-29T16:49:16.414Z,26.11
2022-08-29T16:51:19.050Z,26.04
2022-08-29T16:53:18.607Z,25.99
2022-08-29T16:55:19.582Z,25.8
2022-08-29T16:57:20.782Z,25.75
2022-08-29T16:59:21.584Z,25.67
2022-08-29T17:01:22.572Z,25.53
2022-08-29T17:03:24.110Z,25.36
2022-08-29T17:05:25.690Z,25.36
2022-08-29T17:07:26.895Z,25.32
2022-08-29T17:09:28.223Z,25.35
2022-08-29T17:11:29.887Z,25.32
2022-08-29T17:13:31.676Z,25.1
2022-08-29T17:15:33.094Z,25.1
2022-08-29T17:17:34.023Z,25.03
2022-08-29T17:19:35.108Z,24.85
2022-08-29T17:21:36.145Z,24.7
2022-08-29T17:23:37.648Z,24.59
2022-08-29T17:25:38.966Z,24.46
2022-08-29T17:27:42.876Z,24.35
2022-08-29T17:29:42.236Z,24.3
2022-08-29T17:31:43.448Z,24.15
2022-08-29T17:33:45.137Z,24.04
2022-08-29T17:35:45.960Z,23.99
2022-08-29T17:37:47.157Z,23.89
2022-08-29T17:39:48.149Z,23.81
2022-08-29T17:41:49.847Z,23.73
2022-08-29T17:45:51.920Z,23.46
2022-08-29T17:47:53.233Z,23.34
2022-08-29T17:49:54.859Z,23.24
2022-08-29T17:51:55.951Z,23.11
2022-08-29T17:53:57.681Z,23
2022-08-29T17:55:58.632Z,22.9
2022-08-29T17:57:59.545Z,22.81
2022-08-29T18:00:00.543Z,22.69
2022-08-29T18:02:01.806Z,22.58
2022-08-29T18:04:02.620Z,22.46
2022-08-29T18:06:03.675Z,22.3
2022-08-29T18:08:05.153Z,22.19
2022-08-29T18:10:06.878Z,22.12
2022-08-29T18:12:52.217Z,21.96
2022-08-29T18:14:53.448Z,21.83
2022-08-29T18:16:55.244Z,21.78
2022-08-29T18:18:56.068Z,21.61
2022-08-29T18:20:57.533Z,21.46
2022-08-29T18:22:58.381Z,21.35
2022-08-29T18:24:59.830Z,21.31
2022-08-29T18:27:01.062Z,21.18
2022-08-29T18:29:02.085Z,20.99
2022-08-29T18:31:03.585Z,20.78
2022-08-29T18:33:04.863Z,20.53
2022-08-29T18:35:05.786Z,20.32
2022-08-29T18:37:07.151Z,20.2
2022-08-29T18:39:08.716Z,20.28
2022-08-29T18:41:09.635Z,20.3
2022-08-29T18:43:11.195Z,20.13
2022-08-29T18:45:12.263Z,20.04
2022-08-29T18:47:13.368Z,19.91
2022-08-29T18:49:15.224Z,19.79
2022-08-29T18:51:16.415Z,19.74
2022-08-29T18:53:26.597Z,20.03
2022-08-29T18:55:18.987Z,19.98
2022-08-29T18:57:19.982Z,19.83
2022-08-29T18:59:21.934Z,19.81
2022-08-29T19:01:27.570Z,19.81
2022-08-29T19:03:24.947Z,19.78
2022-08-29T19:05:26.761Z,19.65
2022-08-29T19:07:27.622Z,19.6
2022-08-29T19:09:28.866Z,19.74
2022-08-29T19:11:30.423Z,19.79
2022-08-29T19:13:31.900Z,20.04
2022-08-29T19:15:33.345Z,20.01
2022-08-29T19:17:34.567Z,19.97
2022-08-29T19:19:35.454Z,19.81
2022-08-29T19:21:36.927Z,19.73
2022-08-29T19:23:38.242Z,19.48
2022-08-29T19:25:39.206Z,19.32
2022-08-29T19:27:43.069Z,19.34
2022-08-29T19:29:42.153Z,19.28
2022-08-29T19:31:43.745Z,19.11
2022-08-29T19:33:45.041Z,19.11
2022-08-29T19:35:46.064Z,18.89
2022-08-29T19:37:47.280Z,18.49
2022-08-29T19:39:48.706Z,18.28
2022-08-29T19:41:50.292Z,18.34
2022-08-29T19:43:51.337Z,18.29
2022-08-29T19:45:52.865Z,18.25
2022-08-29T19:47:53.781Z,18.32
2022-08-29T19:49:55.444Z,18.32
2022-08-29T19:51:57.010Z,18.27
2022-08-29T19:53:58.825Z,18.21
2022-08-29T19:56:00.115Z,18.24
2022-08-29T19:58:01.750Z,18.26
2022-08-29T20:00:02.947Z,18.32
2022-08-29T20:02:04.494Z,18.3
2022-08-29T20:04:05.872Z,18.11
2022-08-29T20:06:06.903Z,17.87
2022-08-29T20:08:08.651Z,17.64
2022-08-29T20:10:10.038Z,17.79
2022-08-29T20:12:11.094Z,17.81
2022-08-29T20:14:14.129Z,17.71
2022-08-29T20:16:13.964Z,17.57
2022-08-29T20:18:15.471Z,17.46
2022-08-29T20:20:17.037Z,17.32
2022-08-29T20:22:20.451Z,17.21
2022-08-29T20:24:19.972Z,17.07
2022-08-29T20:26:20.897Z,17.01
2022-08-29T20:28:21.940Z,16.93
2022-08-29T20:30:23.326Z,16.93
2022-08-29T20:32:24.263Z,17.02
2022-08-29T20:34:26.018Z,17.07
2022-08-29T20:36:27.102Z,17.06
2022-08-29T20:38:28.101Z,16.99
2022-08-29T20:40:29.474Z,16.87
2022-08-29T20:42:31.086Z,16.84
2022-08-29T20:44:34.134Z,16.8
2022-08-29T20:46:33.698Z,16.81
2022-08-29T20:48:35.233Z,16.82
2022-08-29T20:50:36.582Z,16.79
2022-08-29T20:52:37.807Z,16.81
2022-08-29T20:54:39.500Z,16.77
2022-08-29T20:56:41.025Z,16.68
2022-08-29T20:58:42.255Z,16.67
2022-08-29T21:00:44.187Z,16.83
2022-08-29T21:02:45.066Z,16.85
2022-08-29T21:04:45.988Z,16.43
2022-08-29T21:06:46.970Z,15.91
2022-08-29T21:08:48.069Z,16.07
2022-08-29T21:10:49.317Z,16.05
2022-08-29T21:12:51.158Z,16.13
2022-08-29T21:14:52.466Z,16.33
2022-08-29T21:16:53.508Z,16.52
2022-08-29T21:18:55.239Z,16.47
2022-08-29T21:20:57.134Z,16.55
2022-08-29T21:22:58.898Z,16.52
2022-08-29T21:25:00.498Z,16.57
2022-08-29T21:27:01.824Z,16.42
2022-08-29T21:29:02.841Z,16.08
2022-08-29T21:31:04.400Z,16.04
2022-08-29T21:33:05.675Z,16.04
2022-08-29T21:35:07.247Z,15.93
2022-08-29T21:37:08.700Z,15.78
2022-08-29T21:39:10.545Z,15.65
2022-08-29T21:41:11.566Z,15.76
2022-08-29T21:43:13.312Z,15.81
2022-08-29T21:45:15.206Z,15.77
2022-08-29T21:47:17.919Z,15.78
2022-08-29T21:49:18.098Z,15.7
2022-08-29T21:51:19.844Z,15.56
2022-08-29T21:53:21.561Z,15.5
2022-08-29T21:55:22.824Z,15.42
2022-08-29T21:57:24.241Z,15.31
2022-08-29T21:59:25.688Z,15.32
2022-08-29T22:01:26.840Z,15.35
2022-08-29T22:03:28.392Z,15.45
2022-08-29T22:05:30.792Z,15.44
2022-08-29T22:07:31.307Z,15.33
2022-08-29T22:09:32.746Z,15.25
2022-08-29T22:11:37.279Z,15.13
2022-08-29T22:13:35.713Z,15.03
2022-08-29T22:15:37.292Z,15.05
2022-08-29T22:17:38.978Z,15.2
2022-08-29T22:19:40.218Z,15.31
2022-08-29T22:21:42.086Z,15.39
2022-08-29T22:23:43.667Z,15.51
2022-08-29T22:25:45.151Z,15.42
2022-08-29T22:27:47.011Z,15.29
2022-08-29T22:29:48.759Z,15.19
2022-08-29T22:31:50.534Z,15.03
2022-08-29T22:33:52.262Z,14.9
2022-08-29T22:35:53.467Z,14.81
2022-08-29T22:37:54.821Z,14.84
2022-08-29T22:39:56.312Z,14.89
2022-08-29T22:41:57.965Z,14.83
2022-08-29T22:44:31.914Z,14.77
2022-08-29T22:46:00.251Z,14.75
2022-08-29T22:48:01.223Z,14.77
2022-08-29T22:50:03.041Z,14.79
2022-08-29T22:52:04.057Z,14.67
2022-08-29T22:54:05.796Z,14.62
2022-08-29T22:56:07.497Z,14.51
2022-08-29T22:58:08.774Z,14.42
2022-08-29T23:00:09.706Z,14.31
2022-08-29T23:02:11.586Z,14.22
2022-08-29T23:04:12.743Z,14.13
2022-08-29T23:06:13.995Z,14.06
2022-08-29T23:08:15.473Z,14.1
2022-08-29T23:10:17.280Z,14.12
2022-08-29T23:12:19.021Z,14.22
2022-08-29T23:14:20.903Z,14.14
2022-08-29T23:16:22.127Z,14.11
2022-08-29T23:18:23.850Z,14.01
2022-08-29T23:20:29.231Z,14.06
2022-08-29T23:22:27.378Z,14.36
2022-08-29T23:24:29.247Z,14.4
2022-08-29T23:26:31.042Z,14.39
2022-08-29T23:28:32.825Z,14.47
2022-08-29T23:30:34.695Z,14.47
2022-08-29T23:32:35.803Z,14.44
2022-08-29T23:34:36.950Z,14.38
2022-08-29T23:36:38.325Z,14.29
2022-08-29T23:38:39.342Z,14.24
2022-08-29T23:40:40.287Z,14.23
2022-08-29T23:42:41.588Z,14.17
2022-08-29T23:44:43.148Z,14.21
2022-08-29T23:46:44.765Z,14.31
2022-08-29T23:48:46.253Z,14.31
2022-08-29T23:50:47.164Z,14.43
2022-08-29T23:52:48.797Z,14.37
2022-08-29T23:54:50.499Z,14.29
2022-08-29T23:56:51.987Z,14.21
2022-08-29T23:58:53.400Z,14.16
